createdAt,value
2018-05-27T00:00:28.969Z,1020.8
2018-05-27T00:05:28.965Z,1020.8
2018-05-27T00:10:29.136Z,1020.7
2018-05-27T00:15:29.431Z,1020.7
2018-05-27T00:20:28.990Z,1020.8
2018-05-27T00:25:29.299Z,1020.6
2018-05-27T00:30:41.512Z,1020.6
2018-05-27T00:35:41.289Z,1020.6
2018-05-27T00:40:41.096Z,1020.6
2018-05-27T00:45:41.241Z,1020.5
2018-05-27T00:50:41.286Z,1020.6
2018-05-27T00:55:41.103Z,1020.5
2018-05-27T01:00:41.241Z,1020.5
2018-05-27T01:05:45.500Z,1020.5
2018-05-27T01:10:45.324Z,1020.6
2018-05-27T01:15:55.700Z,1020.5
2018-05-27T01:20:55.645Z,1020.5
2018-05-27T01:25:55.282Z,1020.5
2018-05-27T01:30:55.550Z,1020.5
2018-05-27T01:35:55.429Z,1020.5
2018-05-27T01:40:55.396Z,1020.5
2018-05-27T01:45:55.381Z,1020.6
2018-05-27T01:50:56.878Z,1020.6
2018-05-27T01:55:57.104Z,1020.5
2018-05-27T02:01:08.729Z,1020.5
2018-05-27T02:06:08.567Z,1020.4
2018-05-27T02:11:08.880Z,1020.4
2018-05-27T02:16:09.587Z,1020.2
2018-05-27T02:21:08.464Z,1020.1
2018-05-27T02:26:08.578Z,1020.1
2018-05-27T02:31:08.601Z,1020.1
2018-05-27T02:36:12.739Z,1020.2
2018-05-27T02:41:12.774Z,1020.2
2018-05-27T02:46:24.621Z,1020.3
2018-05-27T02:51:24.505Z,1020.3
2018-05-27T02:56:24.343Z,1020.3
2018-05-27T03:01:24.464Z,1020.1
2018-05-27T03:06:24.364Z,1020.2
2018-05-27T03:11:24.532Z,1020.1
2018-05-27T03:16:24.572Z,1020.3
2018-05-27T03:21:26.184Z,1020.2
2018-05-27T03:26:25.885Z,1020.3
2018-05-27T03:31:38.701Z,1020.3
2018-05-27T03:36:39.340Z,1020.3
2018-05-27T03:41:38.893Z,1020.3
2018-05-27T03:46:38.609Z,1020.2
2018-05-27T03:51:38.451Z,1020.2
2018-05-27T03:56:38.676Z,1020.2
2018-05-27T04:01:39.720Z,1020.2
2018-05-27T04:06:39.171Z,1020.2
2018-05-27T04:11:38.629Z,1020.2
2018-05-27T04:16:50.736Z,1020.1
2018-05-27T04:21:50.634Z,1020.1
2018-05-27T04:26:51.092Z,1020.1
2018-05-27T04:31:50.907Z,1020.1
2018-05-27T04:36:50.623Z,1019.9
2018-05-27T04:41:50.758Z,1020
2018-05-27T04:46:51.097Z,1019.9
2018-05-27T04:51:51.092Z,1019.8
2018-05-27T04:56:50.982Z,1019.8
2018-05-27T05:02:04.260Z,1019.8
2018-05-27T05:07:03.841Z,1019.7
2018-05-27T05:12:03.881Z,1019.6
2018-05-27T05:17:03.803Z,1019.6
2018-05-27T05:22:04.171Z,1019.6
2018-05-27T05:27:04.676Z,1019.6
2018-05-27T05:32:04.313Z,1019.7
2018-05-27T05:37:04.564Z,1019.6
2018-05-27T05:42:04.495Z,1019.6
2018-05-27T05:47:16.626Z,1019.7
2018-05-27T05:52:16.782Z,1019.8
2018-05-27T05:57:16.880Z,1019.8
2018-05-27T06:02:16.698Z,1019.8
2018-05-27T06:07:16.466Z,1019.7
2018-05-27T06:12:16.379Z,1019.7
2018-05-27T06:17:16.369Z,1019.5
2018-05-27T06:22:17.393Z,1019.6
2018-05-27T06:27:16.888Z,1019.5
2018-05-27T06:32:16.993Z,1019.5
2018-05-27T06:37:16.930Z,1019.5
2018-05-27T06:42:17.700Z,1019.3
2018-05-27T06:47:18.232Z,1019.3
2018-05-27T06:52:17.064Z,1019.5
2018-05-27T06:57:29.073Z,1019.4
2018-05-27T07:02:28.790Z,1019.3
2018-05-27T07:07:28.785Z,1019.2
2018-05-27T07:12:29.014Z,1019.1
2018-05-27T07:17:30.434Z,1019.1
2018-05-27T07:22:28.918Z,1019
2018-05-27T07:27:29.133Z,1018.9
2018-05-27T07:32:31.717Z,1019
2018-05-27T07:37:31.084Z,1019
2018-05-27T07:42:43.572Z,1018.8
2018-05-27T07:47:44.737Z,1018.7
2018-05-27T07:52:43.339Z,1018.7
2018-05-27T07:57:43.380Z,1018.8
2018-05-27T08:02:43.499Z,1018.7
2018-05-27T08:07:43.778Z,1018.8
2018-05-27T08:12:43.759Z,1018.7
2018-05-27T08:17:43.527Z,1018.8
2018-05-27T08:22:43.531Z,1018.6
2018-05-27T08:27:56.650Z,1018.7
2018-05-27T08:32:54.911Z,1018.6
2018-05-27T08:37:55.933Z,1018.6
2018-05-27T08:42:54.936Z,1018.5
2018-05-27T08:47:55.169Z,1018.5
2018-05-27T08:52:55.211Z,1018.4
2018-05-27T08:57:55.194Z,1018.3
2018-05-27T09:02:55.185Z,1018.2
2018-05-27T09:07:55.182Z,1018.1
2018-05-27T09:13:07.366Z,1018
2018-05-27T09:18:07.301Z,1018
2018-05-27T09:23:07.476Z,1018.1
2018-05-27T09:28:07.294Z,1018
2018-05-27T09:33:07.292Z,1018
2018-05-27T09:38:07.196Z,1017.9
2018-05-27T09:43:07.518Z,1017.9
2018-05-27T09:48:07.858Z,1017.7
2018-05-27T09:53:08.372Z,1017.7
2018-05-27T09:58:21.812Z,1017.7
2018-05-27T10:03:22.655Z,1017.6
2018-05-27T10:08:21.774Z,1017.5
2018-05-27T10:13:21.648Z,1017.5
2018-05-27T10:18:21.838Z,1017.4
2018-05-27T10:23:21.614Z,1017.4
2018-05-27T10:28:21.990Z,1017.4
2018-05-27T10:33:23.133Z,1017.2
2018-05-27T10:38:21.657Z,1017.1
2018-05-27T10:43:21.780Z,1017
2018-05-27T10:48:21.826Z,1017
2018-05-27T10:53:21.702Z,1017
2018-05-27T10:58:22.714Z,1016.9
2018-05-27T11:03:22.153Z,1016.8
2018-05-27T11:08:35.062Z,1016.8
2018-05-27T11:13:34.686Z,1016.7
2018-05-27T11:18:34.712Z,1016.7
2018-05-27T11:23:34.738Z,1016.7
2018-05-27T11:28:34.918Z,1016.7
2018-05-27T11:33:34.568Z,1016.5
2018-05-27T11:38:34.789Z,1016.4
2018-05-27T11:43:40.956Z,1016.3
2018-05-27T11:48:40.121Z,1016.3
2018-05-27T11:53:52.689Z,1016.2
2018-05-27T11:58:52.978Z,1016.2
2018-05-27T12:03:53.311Z,1016.1
2018-05-27T12:08:52.514Z,1016.2
2018-05-27T12:13:52.538Z,1016
2018-05-27T12:18:52.431Z,1015.9
2018-05-27T12:23:52.539Z,1015.8
2018-05-27T12:28:53.148Z,1015.8
2018-05-27T12:33:52.871Z,1015.9
2018-05-27T12:39:06.098Z,1015.9
2018-05-27T12:44:05.622Z,1016.2
2018-05-27T12:49:06.927Z,1016.3
2018-05-27T12:54:05.954Z,1016.4
2018-05-27T12:59:05.743Z,1016.4
2018-05-27T13:04:06.094Z,1016.5
2018-05-27T13:09:05.668Z,1016.5
2018-05-27T13:14:10.225Z,1016.4
2018-05-27T13:19:10.119Z,1016.3
2018-05-27T13:24:19.805Z,1016.4
2018-05-27T13:29:19.430Z,1016.4
2018-05-27T13:34:19.954Z,1016.3
2018-05-27T13:39:20.235Z,1016.4
2018-05-27T13:44:21.110Z,1016.5
2018-05-27T13:49:20.279Z,1016.4
2018-05-27T13:54:19.644Z,1016.5
2018-05-27T13:59:21.397Z,1016.5
2018-05-27T14:04:22.741Z,1016.3
2018-05-27T14:09:34.631Z,1016.3
2018-05-27T14:14:34.322Z,1016.5
2018-05-27T14:19:34.114Z,1016.3
2018-05-27T14:24:34.298Z,1016.3
2018-05-27T14:29:34.334Z,1016.4
2018-05-27T14:34:34.096Z,1016.4
2018-05-27T14:39:34.256Z,1016.3
2018-05-27T14:44:37.917Z,1016.4
2018-05-27T14:49:36.545Z,1016.3
2018-05-27T14:54:49.201Z,1016.3
2018-05-27T14:59:48.673Z,1016.4
2018-05-27T15:04:51.863Z,1016.3
2018-05-27T15:09:48.733Z,1016.4
2018-05-27T15:14:49.188Z,1016.3
2018-05-27T15:19:48.966Z,1016.4
2018-05-27T15:24:49.000Z,1016.4
2018-05-27T15:29:48.723Z,1016.4
2018-05-27T15:34:50.393Z,1016.4
2018-05-27T15:39:48.851Z,1016.4
2018-05-27T15:44:48.707Z,1016.4
2018-05-27T15:49:48.927Z,1016.4
2018-05-27T15:54:49.457Z,1016.4
2018-05-27T15:59:49.755Z,1016.4
2018-05-27T16:05:02.513Z,1016.4
2018-05-27T16:10:02.251Z,1016.4
2018-05-27T16:15:02.220Z,1016.4
2018-05-27T16:20:02.353Z,1016.5
2018-05-27T16:25:02.315Z,1016.5
2018-05-27T16:30:02.421Z,1016.5
2018-05-27T16:35:02.466Z,1016.5
2018-05-27T16:40:05.354Z,1016.5
2018-05-27T16:45:05.037Z,1016.4
2018-05-27T16:50:16.524Z,1016.4
2018-05-27T16:55:16.326Z,1016.5
2018-05-27T17:00:15.470Z,1016.5
2018-05-27T17:05:15.121Z,1016.6
2018-05-27T17:10:15.106Z,1016.7
2018-05-27T17:15:15.510Z,1016.7
2018-05-27T17:20:15.331Z,1016.7
2018-05-27T17:25:15.634Z,1016.6
2018-05-27T17:30:15.341Z,1016.7
2018-05-27T17:35:27.322Z,1016.8
2018-05-27T17:40:26.888Z,1016.8
2018-05-27T17:45:26.830Z,1016.9
2018-05-27T17:50:26.837Z,1016.9
2018-05-27T17:55:27.124Z,1016.9
2018-05-27T18:00:26.794Z,1016.9
2018-05-27T18:05:26.824Z,1016.9
2018-05-27T18:10:29.174Z,1016.9
2018-05-27T18:15:28.806Z,1017.1
2018-05-27T18:20:41.098Z,1017
2018-05-27T18:25:41.051Z,1017
2018-05-27T18:30:40.817Z,1016.9
2018-05-27T18:35:40.849Z,1017
2018-05-27T18:40:41.355Z,1016.9
2018-05-27T18:45:41.518Z,1017
2018-05-27T18:50:40.824Z,1017.1
2018-05-27T18:55:41.336Z,1017.2
2018-05-27T19:00:41.296Z,1017.2
2018-05-27T19:05:53.514Z,1017.2
2018-05-27T19:10:53.449Z,1017.2
2018-05-27T19:15:53.211Z,1017.3
2018-05-27T19:20:53.703Z,1017.3
2018-05-27T19:25:53.536Z,1017.4
2018-05-27T19:30:53.268Z,1017.5
2018-05-27T19:35:53.460Z,1017.5
2018-05-27T19:40:55.288Z,1017.7
2018-05-27T19:45:55.475Z,1017.7
2018-05-27T19:51:14.266Z,1017.8
2018-05-27T19:56:09.092Z,1017.7
2018-05-27T20:01:09.213Z,1017.7
2018-05-27T20:06:09.400Z,1017.8
2018-05-27T20:11:09.341Z,1017.9
2018-05-27T20:16:09.215Z,1017.8
2018-05-27T20:21:09.407Z,1017.8
2018-05-27T20:26:10.237Z,1017.8
2018-05-27T20:31:11.182Z,1017.8
2018-05-27T20:36:22.289Z,1017.8
2018-05-27T20:41:22.202Z,1017.8
2018-05-27T20:46:22.652Z,1017.8
2018-05-27T20:51:22.199Z,1017.9
2018-05-27T20:56:23.799Z,1017.9
2018-05-27T21:01:21.995Z,1017.9
2018-05-27T21:06:22.030Z,1017.9
2018-05-27T21:11:25.077Z,1017.9
2018-05-27T21:16:24.898Z,1017.9
2018-05-27T21:21:37.332Z,1017.9
2018-05-27T21:26:36.918Z,1017.9
2018-05-27T21:31:37.300Z,1017.9
2018-05-27T21:36:36.815Z,1017.9
2018-05-27T21:41:37.304Z,1018
2018-05-27T21:46:36.890Z,1018.1
2018-05-27T21:51:37.873Z,1018.1
2018-05-27T21:56:40.168Z,1018.2
2018-05-27T22:01:39.830Z,1018.2
2018-05-27T22:06:52.230Z,1018.2
2018-05-27T22:11:52.178Z,1018.2
2018-05-27T22:16:52.108Z,1018.2
2018-05-27T22:21:52.498Z,1018
2018-05-27T22:26:51.959Z,1018
2018-05-27T22:31:53.385Z,1018
2018-05-27T22:36:52.278Z,1018
2018-05-27T22:41:52.755Z,1018
2018-05-27T22:46:52.609Z,1018
2018-05-27T22:52:06.591Z,1017.9
2018-05-27T22:57:05.500Z,1018
2018-05-27T23:02:05.322Z,1018
2018-05-27T23:07:05.455Z,1017.9
2018-05-27T23:12:05.768Z,1017.9
2018-05-27T23:17:05.540Z,1017.8
2018-05-27T23:22:05.527Z,1017.9
2018-05-27T23:27:05.533Z,1017.9
2018-05-27T23:32:05.446Z,1017.9
2018-05-27T23:37:05.840Z,1017.8
2018-05-27T23:42:05.447Z,1017.8
2018-05-27T23:47:05.850Z,1017.8
2018-05-27T23:52:06.894Z,1017.8
2018-05-27T23:57:07.915Z,1017.7
